Flight Track Log - Related Links

Times and Time Zones

All times are in EDT time to prevent confusion due to time zone crossing. See the WBR2626 flight status page for this flight to view local times or setup timezone preferences in your user account.

Time Position Orientation Groundspeed Altitude Reporting Facility
EDT Latitude Longitude Course Direction KTS MPH feet Rate Location/Type
Thu 04:12:55 PM 38.7500 -90.3500 90° East 94 108 900  Level Gateway (St. Louis) TRACON
Thu 04:13:43 PM 38.7500 -90.3333 90° East 92 106 1,500 778 Climbing Gateway (St. Louis) TRACON
Thu 04:14:43 PM 38.7667 -90.3167 38° Northeast 117 135 2,300 733 Climbing Gateway (St. Louis) TRACON
Thu 04:15:13 PM 38.7836 -90.3294 330° Northwest 118 136 2,600 791 Climbing Kansas City Center
Thu 04:16:14 PM 38.8150 -90.3428 342° North 119 137 3,500 927 Climbing Kansas City Center
Thu 04:17:16 PM 38.8544 -90.3581 343° North 121 139 4,500 927 Climbing Kansas City Center
Thu 04:18:17 PM 38.8883 -90.3697 345° North 124 143 5,400 885 Climbing Kansas City Center
Thu 04:19:18 PM 38.9219 -90.3814 345° North 125 144 6,300 829 Climbing Kansas City Center
Thu 04:20:20 PM 38.9533 -90.3939 343° North 121 139 7,100 780 Climbing Kansas City Center
Thu 04:21:21 PM 38.9864 -90.4072 343° North 123 142 7,900 488 Climbing Kansas City Center
Thu 04:22:23 PM 39.0250 -90.4217 344° North 140 161 8,100 98 Climbing Kansas City Center
Thu 04:23:24 PM 39.0672 -90.4392 342° North 159 183 8,100 -49 Level Kansas City Center
Thu 04:24:25 PM 39.1100 -90.4561 343° North 160 184 8,000 -49 Descending Kansas City Center
Thu 04:25:27 PM 39.1606 -90.4767 343° North 160 184 8,000  Level Kansas City Center
Thu 04:27:25 PM 39.2386 -90.5025 346° North 162 186 8,000 33 Level Chicago Center
Thu 04:28:27 PM 39.2825 -90.5231 340° North 161 185 8,100  Climbing Chicago Center
Thu 04:29:28 PM 39.3242 -90.5358 347° North 156 180 8,000  Descending Chicago Center
Thu 04:30:30 PM 39.3653 -90.5511 344° North 154 177 8,100  Climbing Chicago Center
Thu 04:31:35 PM 39.4128 -90.5664 346° North 156 180 8,000 -47 Descending Kansas City Center
Thu 04:32:37 PM 39.4556 -90.5811 345° North 159 183 8,000  Level Kansas City Center
Thu 04:33:38 PM 39.5006 -90.5911 350° North 163 188 8,000  Level Kansas City Center
Thu 04:34:40 PM 39.5494 -90.6150 339° North 157 181 8,000  Level Kansas City Center
Thu 04:35:41 PM 39.5914 -90.6344 340° North 160 184 8,000  Level Kansas City Center
Thu 04:36:43 PM 39.6319 -90.6503 343° North 155 178 8,000  Level Kansas City Center
Thu 04:37:44 PM 39.6736 -90.6672 343° North 157 181 8,000  Level Kansas City Center
Thu 04:38:46 PM 39.7158 -90.6833 344° North 158 182 8,000 49 Level Kansas City Center
Thu 04:39:47 PM 39.7636 -90.6989 346° North 159 183 8,100  Climbing Kansas City Center
Thu 04:40:49 PM 39.8014 -90.7281 329° Northwest 163 188 8,000 -49 Descending Kansas City Center
Thu 04:41:50 PM 39.8333 -90.7642 319° Northwest 158 182 8,000  Level Kansas City Center
Thu 04:42:52 PM 39.8750 -90.7894 335° Northwest 161 185 8,000  Level Kansas City Center
Thu 04:43:53 PM 39.9164 -90.8103 339° North 161 185 8,000  Level Kansas City Center
Thu 04:44:55 PM 39.9603 -90.8200 350° North 161 185 8,000  Level Kansas City Center
Thu 04:45:56 PM 40.0064 -90.8222 358° North 165 190 8,000 -146 Level Kansas City Center
Thu 04:46:58 PM 40.0597 -90.8381 347° North 164 189 7,700 -488 Descending Kansas City Center
Thu 04:47:59 PM 40.1044 -90.8558 343° North 164 189 7,000 -605 Descending Kansas City Center
Thu 04:48:57 PM 40.1456 -90.8739 341° North 161 185 6,500 -605 Descending Chicago Center
Thu 04:49:58 PM 40.1922 -90.8942 342° North 167 192 5,800 -634 Descending Chicago Center
Thu 04:51:00 PM 40.2353 -90.9078 346° North 164 189 5,200 -567 Descending Chicago Center
Thu 04:52:05 PM 40.2783 -90.9231 345° North 160 184 4,600 -571 Descending Kansas City Center
Thu 04:53:06 PM 40.3219 -90.9386 345° North 162 186 4,000 -488 Descending Kansas City Center
Thu 04:54:08 PM 40.3667 -90.9556 344° North 162 186 3,600 -400 Descending Kansas City Center
Thu 04:55:06 PM 40.4075 -90.9719 343° North 160 184 3,200 -250 Descending Chicago Center
Thu 04:56:08 PM 40.4464 -90.9869 344° North 154 177 3,100 -49 Descending Chicago Center
Thu 04:57:09 PM 40.4922 -91.0061 342° North 157 181 3,100  Level Chicago Center
Thu 04:58:11 PM 40.5389 -91.0247 343° North 166 191 3,100 -49 Level Chicago Center
Thu 04:59:12 PM 40.5858 -91.0472 340° North 160 184 3,000 -49 Descending Chicago Center
Thu 05:00:14 PM 40.6236 -91.0700 335° Northwest 156 180 3,000  Level Chicago Center
Thu 05:01:15 PM 40.6617 -91.0944 334° Northwest 153 176 3,000 -98 Level Chicago Center
Thu 05:02:17 PM 40.6986 -91.1244 328° Northwest 154 177 2,800 -244 Descending Chicago Center
Thu 05:03:18 PM 40.7389 -91.1461 338° Northwest 158 182 2,500 -195 Descending Chicago Center
Thu 05:04:20 PM 40.7914 -91.1394 North 164 189 2,400 -97 Descending Chicago Center
Thu 05:06:00 PM 40.7832 -91.1255 143° Southeast  Level Estimated

Login

Don't have an account? Register now (free) for customized features, flight alerts, and more!